Time;durP1;ratioP1;P1;durP2;ratioP2;P2;SDS_P1;SDS_P2;PMS_P1;PMS_P2;Temp;Humidity;BMP_temperature;BMP_pressure;BME280_temperature;BME280_humidity;BME280_pressure;Samples;Min_cycle;Max_cycle;Signal;HPM_P1;HPM_P2
2023/12/27 00:02:09;;;;;;;5.35;2.40;;;22.10;55.50;;;;;;4979702;28;20065;-68
2023/12/27 00:04:35;;;;;;;5.55;2.28;;;22.10;55.40;;;;;;4980972;28;20030;-68
2023/12/27 00:07:02;;;;;;;6.88;2.45;;;22.00;55.50;;;;;;5007032;28;20197;-68
2023/12/27 00:09:28;;;;;;;4.40;2.10;;;22.10;55.50;;;;;;5006164;28;20106;-67
2023/12/27 00:11:55;;;;;;;4.57;2.08;;;22.10;55.50;;;;;;4988239;28;20034;-68
2023/12/27 00:14:22;;;;;;;5.95;2.47;;;22.10;55.40;;;;;;4991871;28;20030;-68
2023/12/27 00:16:48;;;;;;;3.80;1.98;;;22.10;55.30;;;;;;5006402;28;20102;-68
2023/12/27 00:19:14;;;;;;;4.40;2.00;;;22.20;55.30;;;;;;4991167;28;20463;-67
2023/12/27 00:21:39;;;;;;;4.32;2.03;;;22.20;55.30;;;;;;4994420;28;20027;-68
2023/12/27 00:24:05;;;;;;;5.57;2.10;;;22.20;55.20;;;;;;4991431;28;20019;-69
2023/12/27 00:26:31;;;;;;;4.93;2.38;;;22.20;55.20;;;;;;4994257;28;20011;-69
2023/12/27 00:28:56;;;;;;;5.30;2.00;;;22.20;55.20;;;;;;4993544;28;20038;-69
2023/12/27 00:31:22;;;;;;;3.85;1.75;;;22.20;55.10;;;;;;4987938;28;20041;-69
2023/12/27 00:33:47;;;;;;;4.80;2.20;;;22.20;55.10;;;;;;4998781;28;20502;-69
2023/12/27 00:36:19;;;;;;;4.93;2.25;;;22.20;55.10;;;;;;4978658;28;20115;-68
2023/12/27 00:38:44;;;;;;;4.53;2.20;;;22.20;55.10;;;;;;4994038;28;20034;-69
2023/12/27 00:41:10;;;;;;;4.85;2.13;;;22.20;55.00;;;;;;4980068;28;20094;-68
2023/12/27 00:43:39;;;;;;;4.88;2.00;;;22.20;55.00;;;;;;4980075;28;20069;-67
2023/12/27 00:46:05;;;;;;;;;;;22.30;55.00;;;;;;4977335;28;20842;-68
2023/12/27 00:48:31;;;;;;;5.43;2.15;;;22.30;55.00;;;;;;4979008;28;19945;-68
2023/12/27 00:50:58;;;;;;;5.72;2.40;;;22.30;54.90;;;;;;4980651;28;20097;-68
2023/12/27 00:53:23;;;;;;;3.67;1.77;;;22.30;54.90;;;;;;4976741;28;20061;-68
2023/12/27 00:55:49;;;;;;;4.47;1.92;;;22.30;54.90;;;;;;4980238;28;20058;-68
2023/12/27 00:58:15;;;;;;;4.18;1.95;;;22.30;54.80;;;;;;4978486;28;20038;-68
2023/12/27 01:00:40;;;;;;;5.80;1.90;;;22.30;54.80;;;;;;4978705;28;20022;-71
2023/12/27 01:03:06;;;;;;;4.65;2.20;;;22.30;54.80;;;;;;4979055;28;20510;-71
2023/12/27 01:05:31;;;;;;;3.88;1.58;;;22.30;54.70;;;;;;4977884;28;20102;-71
2023/12/27 01:07:57;;;;;;;4.60;2.25;;;22.30;54.70;;;;;;4981080;28;20057;-71
2023/12/27 01:10:23;;;;;;;4.60;1.80;;;22.30;54.70;;;;;;4977657;28;20022;-71
2023/12/27 01:12:49;;;;;;;4.93;2.10;;;22.30;54.70;;;;;;4980238;28;20035;-71
2023/12/27 01:15:15;;;;;;;4.38;1.80;;;22.40;54.70;;;;;;4981224;28;20494;-71
2023/12/27 01:17:40;;;;;;;4.93;1.92;;;22.40;54.70;;;;;;4994664;28;20035;-71
2023/12/27 01:20:06;;;;;;;4.47;2.10;;;22.40;54.70;;;;;;4981913;28;20077;-71
2023/12/27 01:22:32;;;;;;;4.00;1.88;;;22.40;54.70;;;;;;4998387;28;20030;-71
2023/12/27 01:24:58;;;;;;;3.75;2.05;;;22.40;54.70;;;;;;4981299;28;20110;-71
2023/12/27 01:27:23;;;;;;;3.08;1.50;;;22.40;54.60;;;;;;4982651;28;20027;-72
2023/12/27 01:29:49;;;;;;;4.07;1.70;;;22.40;55.10;;;;;;4998453;28;20062;-71
2023/12/27 01:32:15;;;;;;;5.38;1.95;;;22.40;54.60;;;;;;4983194;28;20459;-68
2023/12/27 01:34:40;;;;;;;5.47;2.42;;;22.40;54.60;;;;;;4981249;28;20479;-68
2023/12/27 01:37:06;;;;;;;3.50;1.55;;;22.40;54.60;;;;;;4981614;28;20026;-69
2023/12/27 01:39:31;;;;;;;3.15;1.67;;;22.40;54.60;;;;;;4981514;28;20030;-69
2023/12/27 01:41:57;;;;;;;3.45;1.58;;;22.40;54.60;;;;;;4983247;28;20026;-68
2023/12/27 01:44:22;;;;;;;3.10;1.50;;;22.40;54.60;;;;;;4981793;28;20479;-69
2023/12/27 01:46:48;;;;;;;4.38;1.70;;;22.40;54.50;;;;;;4982974;28;20086;-69
2023/12/27 01:49:14;;;;;;;4.13;1.73;;;22.40;54.50;;;;;;4982273;28;20031;-68
2023/12/27 01:51:40;;;;;;;3.25;1.60;;;22.40;54.50;;;;;;4982182;28;20033;-68
2023/12/27 01:54:05;;;;;;;3.30;1.73;;;22.50;54.50;;;;;;4981939;28;20069;-69
2023/12/27 01:56:32;;;;;;;4.35;1.70;;;22.50;54.50;;;;;;4982989;28;20030;-68
2023/12/27 01:58:58;;;;;;;5.07;2.08;;;22.50;54.50;;;;;;4984829;28;20038;-68
2023/12/27 02:01:23;;;;;;;3.45;1.85;;;22.50;54.50;;;;;;4981216;28;20019;-69
2023/12/27 02:03:49;;;;;;;3.08;1.67;;;22.50;54.50;;;;;;4982003;28;20037;-69
2023/12/27 02:06:15;;;;;;;5.00;2.03;;;22.50;54.50;;;;;;4981008;28;20478;-69
2023/12/27 02:08:41;;;;;;;3.50;1.48;;;22.50;54.40;;;;;;4982922;28;20085;-68
2023/12/27 02:11:07;;;;;;;4.47;1.65;;;22.50;54.40;;;;;;4983013;28;20034;-69
2023/12/27 02:13:32;;;;;;;3.72;1.73;;;22.50;54.40;;;;;;4981644;28;20491;-69
2023/12/27 02:15:59;;;;;;;3.40;1.40;;;22.50;54.40;;;;;;4980215;28;20540;-68
2023/12/27 02:18:26;;;;;;;3.40;1.60;;;22.50;54.40;;;;;;4983950;28;20534;-69
2023/12/27 02:20:52;;;;;;;3.50;1.50;;;22.50;54.40;;;;;;4977319;28;20034;-69
2023/12/27 02:23:20;;;;;;;4.07;1.80;;;22.50;54.40;;;;;;4980590;28;20039;-70
2023/12/27 02:25:47;;;;;;;4.45;1.75;;;22.50;54.40;;;;;;4982369;28;20023;-69
2023/12/27 02:28:13;;;;;;;2.72;1.35;;;22.50;54.40;;;;;;4995957;28;20031;-69
2023/12/27 02:30:39;;;;;;;3.03;1.27;;;22.50;54.40;;;;;;4995977;28;20048;-68
2023/12/27 02:33:05;;;;;;;2.67;1.25;;;22.50;54.50;;;;;;4981462;28;20019;-69
2023/12/27 02:35:30;;;;;;;2.95;1.40;;;22.50;54.40;;;;;;4981802;28;20030;-68
2023/12/27 02:37:56;;;;;;;3.83;1.70;;;22.50;54.40;;;;;;4982122;28;20037;-69
2023/12/27 02:40:22;;;;;;;2.50;1.20;;;22.40;54.40;;;;;;4983549;28;20500;-68
2023/12/27 02:42:48;;;;;;;2.55;1.20;;;22.50;54.50;;;;;;4980339;28;20030;-68
2023/12/27 02:45:13;;;;;;;3.55;1.60;;;22.40;54.40;;;;;;4978981;28;20109;-68
2023/12/27 02:47:39;;;;;;;3.00;1.40;;;22.40;54.40;;;;;;4979762;28;20030;-68
2023/12/27 02:50:05;;;;;;;3.83;1.45;;;22.40;54.40;;;;;;4980189;28;20495;-68
2023/12/27 02:52:31;;;;;;;3.22;1.50;;;22.40;54.40;;;;;;4980142;28;20088;-67
2023/12/27 02:54:57;;;;;;;2.95;1.30;;;22.40;54.40;;;;;;4979600;28;20023;-68
2023/12/27 02:57:23;;;;;;;2.63;1.33;;;22.40;54.30;;;;;;4979147;28;20029;-68
2023/12/27 02:59:49;;;;;;;3.40;1.50;;;22.40;54.40;;;;;;4980498;28;20030;-68
2023/12/27 03:02:14;;;;;;;3.10;1.60;;;22.40;54.40;;;;;;4978538;28;20113;-69
2023/12/27 03:04:40;;;;;;;2.70;1.20;;;22.30;54.30;;;;;;4978815;28;20037;-69
2023/12/27 03:07:07;;;;;;;2.22;1.33;;;22.30;54.30;;;;;;4980381;28;20059;-69
2023/12/27 03:09:33;;;;;;;3.28;1.40;;;22.30;54.30;;;;;;4980419;28;20019;-69
2023/12/27 03:11:59;;;;;;;2.75;1.30;;;22.30;54.30;;;;;;4980854;28;20493;-69
2023/12/27 03:14:26;;;;;;;2.95;1.30;;;22.30;54.30;;;;;;4980366;28;20030;-69
2023/12/27 03:16:51;;;;;;;2.60;1.35;;;22.30;54.30;;;;;;4993491;28;20679;-69
2023/12/27 03:19:17;;;;;;;3.95;1.50;;;22.30;54.30;;;;;;4979259;28;20023;-69
2023/12/27 03:21:42;;;;;;;3.42;1.52;;;22.30;54.30;;;;;;4980299;28;20400;-68
2023/12/27 03:24:08;;;;;;;2.63;1.30;;;22.20;54.30;;;;;;4980243;28;20089;-70
2023/12/27 03:26:34;;;;;;;3.30;1.42;;;22.20;54.30;;;;;;4981451;28;20030;-69
2023/12/27 03:28:59;;;;;;;2.78;1.38;;;22.20;54.30;;;;;;4980365;28;20114;-69
2023/12/27 03:31:28;;;;;;;2.55;1.40;;;22.20;54.40;;;;;;4979512;28;20538;-71
2023/12/27 03:33:57;;;;;;;3.47;1.40;;;22.20;54.40;;;;;;4979846;28;20505;-72
2023/12/27 03:36:26;;;;;;;2.85;1.33;;;22.10;54.40;;;;;;4979829;28;20053;-72
2023/12/27 03:38:52;;;;;;;3.08;1.30;;;22.10;54.40;;;;;;4997200;28;20741;-71
2023/12/27 03:41:17;;;;;;;3.17;1.25;;;22.10;54.40;;;;;;4980307;28;20039;-68
2023/12/27 03:43:43;;;;;;;2.72;1.20;;;22.10;54.40;;;;;;4979811;28;20063;-68
2023/12/27 03:46:10;;;;;;;3.25;1.40;;;22.10;54.50;;;;;;4979387;28;20038;-68
2023/12/27 03:48:35;;;;;;;2.10;1.20;;;22.00;54.40;;;;;;4978180;28;20059;-68
2023/12/27 03:51:02;;;;;;;1.67;1.10;;;22.00;54.50;;;;;;4979186;28;20061;-69
2023/12/27 03:53:28;;;;;;;2.65;1.27;;;22.00;54.50;;;;;;4979416;28;20043;-68
2023/12/27 03:55:53;;;;;;;2.58;1.40;;;22.00;54.50;;;;;;4995166;28;20752;-69
2023/12/27 03:58:19;;;;;;;2.47;1.20;;;21.90;54.50;;;;;;4980196;28;20110;-68
2023/12/27 04:00:44;;;;;;;2.42;1.25;;;22.00;54.50;;;;;;4977510;28;20030;-68
2023/12/27 04:03:10;;;;;;;2.08;1.30;;;21.90;54.50;;;;;;4980979;28;20058;-68
2023/12/27 04:05:35;;;;;;;2.45;1.25;;;21.90;54.50;;;;;;4979586;28;20037;-69
2023/12/27 04:08:01;;;;;;;2.55;1.13;;;21.90;54.60;;;;;;4980994;28;20034;-69
2023/12/27 04:10:31;;;;;;;2.00;1.10;;;21.90;54.60;;;;;;4976641;28;20479;-68
2023/12/27 04:12:57;;;;;;;;;;;21.90;54.60;;;;;;4979575;28;20471;-69
2023/12/27 04:15:22;;;;;;;2.88;1.00;;;21.90;54.70;;;;;;4980525;28;19913;-69
2023/12/27 04:17:48;;;;;;;1.90;1.15;;;21.80;54.60;;;;;;4978677;28;20110;-69
2023/12/27 04:20:13;;;;;;;1.83;1.02;;;21.80;54.60;;;;;;4977250;28;20490;-69
2023/12/27 04:22:39;;;;;;;1.70;1.00;;;21.80;54.70;;;;;;4979547;28;20038;-69
2023/12/27 04:25:05;;;;;;;2.08;1.00;;;21.80;54.70;;;;;;4979397;28;20029;-69
2023/12/27 04:27:31;;;;;;;2.28;1.20;;;21.80;55.20;;;;;;4979766;28;20057;-69
2023/12/27 04:29:56;;;;;;;1.60;0.90;;;21.80;54.80;;;;;;4978338;28;20058;-69
2023/12/27 04:32:22;;;;;;;2.25;1.10;;;21.70;54.70;;;;;;4978298;28;20204;-68
2023/12/27 04:34:47;;;;;;;1.90;1.08;;;21.70;54.70;;;;;;4979464;28;20034;-69
2023/12/27 04:37:13;;;;;;;2.03;0.90;;;21.70;54.80;;;;;;4979176;28;20467;-69
2023/12/27 04:39:38;;;;;;;2.00;0.98;;;21.70;54.80;;;;;;4980268;28;20565;-69
2023/12/27 04:42:04;;;;;;;2.42;1.00;;;21.70;54.80;;;;;;4980369;28;20030;-69
2023/12/27 04:44:30;;;;;;;1.75;1.00;;;21.70;54.90;;;;;;4980043;28;20077;-69
2023/12/27 04:46:56;;;;;;;1.92;0.90;;;21.70;54.90;;;;;;4985233;28;21001;-68
2023/12/27 04:49:22;;;;;;;2.17;1.05;;;21.60;54.90;;;;;;4982130;28;20037;-69
2023/12/27 04:51:47;;;;;;;2.20;1.10;;;21.70;54.90;;;;;;4981591;28;20082;-69
2023/12/27 04:54:13;;;;;;;1.70;0.93;;;21.60;54.90;;;;;;4982564;28;20105;-69
2023/12/27 04:56:38;;;;;;;1.75;1.00;;;21.60;54.90;;;;;;4997009;28;20043;-68
2023/12/27 04:59:04;;;;;;;1.88;1.08;;;21.60;54.90;;;;;;4980021;28;20039;-69
2023/12/27 05:01:29;;;;;;;1.48;1.00;;;21.60;55.00;;;;;;4997950;28;20391;-71
2023/12/27 05:03:55;;;;;;;2.03;1.00;;;21.60;55.00;;;;;;4997520;28;20116;-71
2023/12/27 05:06:21;;;;;;;1.85;1.00;;;21.60;55.00;;;;;;4984543;28;20043;-71
2023/12/27 05:08:47;;;;;;;1.80;0.90;;;21.60;55.00;;;;;;4981318;28;20481;-71
2023/12/27 05:11:15;;;;;;;1.42;0.80;;;21.50;55.00;;;;;;4982716;28;20061;-71
2023/12/27 05:13:41;;;;;;;1.50;0.88;;;21.60;55.00;;;;;;4982413;28;20031;-71
2023/12/27 05:16:14;;;;;;;1.98;0.90;;;21.60;55.10;;;;;;4981945;28;20542;-71
2023/12/27 05:18:41;;;;;;;1.70;0.82;;;21.50;55.00;;;;;;4982598;28;20097;-71
2023/12/27 05:21:08;;;;;;;2.38;0.93;;;21.50;55.10;;;;;;4981316;28;20029;-68
2023/12/27 05:23:33;;;;;;;1.75;0.90;;;21.50;55.10;;;;;;4981529;28;20029;-69
2023/12/27 05:25:59;;;;;;;1.92;0.90;;;21.50;55.10;;;;;;4982168;28;20117;-69
2023/12/27 05:28:25;;;;;;;1.45;0.80;;;21.50;55.10;;;;;;4982292;28;20089;-69
2023/12/27 05:30:50;;;;;;;1.95;1.20;;;21.50;55.10;;;;;;4983206;28;20034;-69
2023/12/27 05:33:16;;;;;;;2.35;1.10;;;21.50;55.10;;;;;;4983089;28;20443;-70
2023/12/27 05:35:42;;;;;;;2.60;1.00;;;21.50;55.10;;;;;;4983265;28;20042;-69
2023/12/27 05:38:07;;;;;;;1.85;1.00;;;21.40;55.10;;;;;;4982211;28;20382;-69
2023/12/27 05:40:33;;;;;;;2.03;1.05;;;21.40;55.10;;;;;;4981946;28;20037;-69
2023/12/27 05:42:58;;;;;;;1.80;1.00;;;21.40;55.10;;;;;;4983179;28;20058;-69
2023/12/27 05:45:24;;;;;;;1.98;1.05;;;21.40;55.10;;;;;;4981143;28;20045;-68
2023/12/27 05:47:51;;;;;;;1.75;0.93;;;21.40;55.10;;;;;;4980911;28;20035;-68
2023/12/27 05:50:17;;;;;;;1.25;0.80;;;21.40;55.20;;;;;;4979667;28;20541;-70
2023/12/27 05:52:42;;;;;;;1.27;0.80;;;21.40;55.20;;;;;;4982421;28;20110;-68
2023/12/27 05:55:08;;;;;;;1.23;0.77;;;21.40;55.20;;;;;;4981324;28;20038;-68
2023/12/27 05:57:34;;;;;;;1.40;0.80;;;21.40;55.20;;;;;;4980748;28;20084;-68
2023/12/27 05:59:59;;;;;;;2.00;1.00;;;21.40;55.30;;;;;;4980185;28;20035;-69
2023/12/27 06:02:25;;;;;;;1.63;0.88;;;21.30;55.30;;;;;;4982481;28;20114;-69
2023/12/27 06:04:50;;;;;;;1.73;1.00;;;21.30;55.30;;;;;;4983272;28;20403;-69
2023/12/27 06:07:16;;;;;;;1.77;0.90;;;21.30;55.30;;;;;;4981009;28;20038;-69
2023/12/27 06:09:42;;;;;;;1.23;0.82;;;21.30;55.30;;;;;;4979981;28;20540;-69
2023/12/27 06:12:08;;;;;;;2.13;1.00;;;21.30;55.40;;;;;;4981418;28;20121;-69
2023/12/27 06:14:34;;;;;;;1.63;0.80;;;21.30;55.40;;;;;;4979579;28;20137;-68
2023/12/27 06:17:01;;;;;;;1.63;0.90;;;21.30;55.40;;;;;;4981831;28;20490;-69
2023/12/27 06:19:27;;;;;;;1.88;1.00;;;21.30;55.40;;;;;;4994870;28;20037;-68
2023/12/27 06:21:53;;;;;;;1.60;0.90;;;21.30;55.40;;;;;;4980353;28;20037;-68
2023/12/27 06:24:19;;;;;;;2.08;0.90;;;21.30;55.40;;;;;;4978567;28;20767;-68
2023/12/27 06:26:44;;;;;;;1.58;0.90;;;21.30;55.40;;;;;;4981920;28;20053;-68
2023/12/27 06:29:10;;;;;;;1.92;0.90;;;21.30;55.50;;;;;;4983474;28;20034;-68
2023/12/27 06:31:35;;;;;;;2.28;0.90;;;21.30;55.50;;;;;;4982707;28;20744;-72
2023/12/27 06:34:01;;;;;;;1.35;0.80;;;21.20;55.40;;;;;;4981440;28;20030;-73
2023/12/27 06:36:27;;;;;;;2.38;1.05;;;21.20;55.40;;;;;;4996378;28;20080;-72
2023/12/27 06:38:53;;;;;;;2.15;1.10;;;21.20;55.50;;;;;;4980852;28;20023;-72
2023/12/27 06:41:18;;;;;;;1.98;0.95;;;21.20;56.00;;;;;;4981006;28;20030;-72
2023/12/27 06:43:44;;;;;;;1.38;0.90;;;21.20;55.50;;;;;;4981584;28;20499;-71
2023/12/27 06:46:10;;;;;;;1.73;1.00;;;21.20;55.50;;;;;;4981812;28;20037;-71
2023/12/27 06:48:36;;;;;;;1.65;1.00;;;21.20;55.50;;;;;;4980408;28;20100;-71
2023/12/27 06:51:04;;;;;;;1.75;1.10;;;21.20;55.50;;;;;;4978462;28;20125;-71
2023/12/27 06:53:29;;;;;;;1.90;1.00;;;21.20;55.50;;;;;;4994057;28;20038;-71
2023/12/27 06:55:55;;;;;;;1.88;1.02;;;21.20;55.50;;;;;;4980285;28;20086;-71
2023/12/27 06:58:21;;;;;;;1.77;1.00;;;21.20;55.50;;;;;;4980036;28;20088;-71
2023/12/27 07:00:47;;;;;;;2.05;1.10;;;21.20;55.60;;;;;;4978187;28;20023;-71
2023/12/27 07:03:13;;;;;;;1.35;0.90;;;21.20;55.60;;;;;;4979662;28;20030;-71
2023/12/27 07:05:39;;;;;;;2.08;1.08;;;21.20;55.60;;;;;;4981155;28;20034;-70
2023/12/27 07:08:05;;;;;;;1.35;0.93;;;21.20;55.50;;;;;;4980586;28;20038;-71
2023/12/27 07:10:31;;;;;;;1.33;0.90;;;21.20;55.60;;;;;;4979369;28;20035;-71
2023/12/27 07:12:57;;;;;;;1.58;0.98;;;21.20;55.50;;;;;;4981243;28;20506;-71
2023/12/27 07:15:23;;;;;;;1.45;0.90;;;21.10;55.50;;;;;;4995539;28;20038;-71
2023/12/27 07:17:49;;;;;;;2.33;1.00;;;21.10;55.50;;;;;;4978827;28;20022;-71
2023/12/27 07:20:15;;;;;;;2.20;0.90;;;21.10;55.50;;;;;;4980270;28;20399;-71
2023/12/27 07:22:40;;;;;;;2.13;1.10;;;21.10;55.50;;;;;;4979133;28;20886;-69
2023/12/27 07:25:06;;;;;;;1.60;0.90;;;21.10;55.50;;;;;;4979991;28;20105;-69
2023/12/27 07:27:32;;;;;;;1.75;0.95;;;21.10;55.50;;;;;;4980576;28;20497;-69
2023/12/27 07:29:57;;;;;;;2.55;1.10;;;21.10;55.50;;;;;;4979266;28;20030;-68
2023/12/27 07:32:23;;;;;;;2.42;1.33;;;21.10;55.50;;;;;;4979756;28;20077;-69
2023/12/27 07:34:48;;;;;;;1.30;0.80;;;21.10;55.50;;;;;;4980407;28;20450;-69
2023/12/27 07:37:14;;;;;;;1.80;0.95;;;21.10;55.50;;;;;;4980223;28;20026;-69
2023/12/27 07:39:40;;;;;;;1.73;0.93;;;21.10;55.50;;;;;;4980732;28;20506;-69
2023/12/27 07:42:06;;;;;;;2.40;1.05;;;21.10;55.40;;;;;;4980527;28;20509;-68
2023/12/27 07:44:32;;;;;;;2.08;1.33;;;21.10;56.00;;;;;;4981540;28;20045;-68
2023/12/27 07:46:58;;;;;;;1.90;0.90;;;21.10;55.50;;;;;;4979155;28;20069;-68
2023/12/27 07:49:25;;;;;;;2.08;1.10;;;21.00;55.50;;;;;;4981426;28;20487;-68
2023/12/27 07:51:50;;;;;;;2.35;1.10;;;21.00;55.40;;;;;;4979386;28;20026;-69
2023/12/27 07:54:16;;;;;;;2.40;0.98;;;21.00;55.50;;;;;;4978075;28;20030;-69
2023/12/27 07:56:42;;;;;;;1.65;0.90;;;21.00;55.50;;;;;;4994883;28;20537;-69
2023/12/27 07:59:08;;;;;;;1.60;0.98;;;21.00;55.50;;;;;;4979744;28;20035;-69
2023/12/27 08:01:33;;;;;;;1.58;0.90;;;21.00;55.50;;;;;;4979679;28;20162;-69
2023/12/27 08:03:59;;;;;;;1.83;0.90;;;21.00;55.40;;;;;;4981964;28;20026;-68
2023/12/27 08:06:26;;;;;;;1.75;1.00;;;21.00;55.40;;;;;;4978342;28;20034;-69
2023/12/27 08:08:52;;;;;;;1.40;1.00;;;21.00;55.50;;;;;;4979933;28;20604;-68
2023/12/27 08:11:18;;;;;;;2.00;1.25;;;21.00;55.50;;;;;;4978283;28;20023;-68
2023/12/27 08:13:44;;;;;;;2.40;1.25;;;21.00;55.50;;;;;;4979935;28;20597;-68
2023/12/27 08:16:09;;;;;;;2.17;1.20;;;21.00;55.50;;;;;;4980571;28;20105;-69
2023/12/27 08:18:35;;;;;;;2.25;1.10;;;20.90;55.50;;;;;;4980058;28;20038;-68
2023/12/27 08:21:06;;;;;;;1.80;1.10;;;20.90;55.50;;;;;;4994548;28;20027;-69
2023/12/27 08:23:32;;;;;;;2.10;1.02;;;20.90;55.50;;;;;;4982314;28;20030;-69
2023/12/27 08:25:58;;;;;;;1.98;1.00;;;20.90;55.60;;;;;;4984631;28;20030;-69
2023/12/27 08:28:23;;;;;;;1.70;0.90;;;20.90;55.60;;;;;;4985804;28;20105;-69
2023/12/27 08:30:49;;;;;;;1.98;1.20;;;20.90;55.60;;;;;;5000741;28;20500;-69
2023/12/27 08:33:15;;;;;;;1.48;1.00;;;20.90;56.20;;;;;;4987732;28;20494;-71
2023/12/27 08:35:41;;;;;;;2.03;1.10;;;20.90;55.70;;;;;;4987058;28;20026;-71
2023/12/27 08:38:08;;;;;;;1.90;0.98;;;20.90;55.70;;;;;;4998813;28;20046;-70
2023/12/27 08:40:34;;;;;;;2.28;1.10;;;20.90;55.70;;;;;;4984412;28;20033;-70
2023/12/27 08:43:00;;;;;;;2.85;1.20;;;20.90;55.30;;;;;;4985613;28;20841;-70
2023/12/27 08:45:26;;;;;;;2.08;0.90;;;20.90;55.70;;;;;;4984259;28;20450;-70
2023/12/27 08:47:52;;;;;;;1.02;0.80;;;20.90;55.70;;;;;;4984375;28;20023;-70
2023/12/27 08:50:17;;;;;;;1.42;1.00;;;20.90;55.70;;;;;;4986812;28;20037;-70
2023/12/27 08:52:43;;;;;;;1.83;1.10;;;20.90;55.70;;;;;;4985095;28;20057;-70
2023/12/27 08:55:10;;;;;;;1.48;1.10;;;20.90;55.70;;;;;;4985816;28;20470;-70
2023/12/27 08:57:37;;;;;;;1.83;1.10;;;20.90;56.20;;;;;;4985751;28;20014;-70
2023/12/27 09:00:10;;;;;;;1.33;0.90;;;20.90;55.70;;;;;;5000589;28;20034;-70
2023/12/27 09:02:39;;;;;;;1.88;1.00;;;20.90;55.80;;;;;;5001948;28;20022;-70
2023/12/27 09:05:06;;;;;;;2.08;1.13;;;20.80;55.70;;;;;;4987337;28;20050;-70
2023/12/27 09:07:32;;;;;;;1.88;1.00;;;20.90;55.80;;;;;;4984223;28;20113;-70
2023/12/27 09:09:58;;;;;;;1.52;0.90;;;20.90;55.80;;;;;;4984009;28;20113;-70
2023/12/27 09:12:24;;;;;;;1.83;1.20;;;20.90;55.80;;;;;;4985618;28;20089;-70
2023/12/27 09:14:50;;;;;;;1.38;0.88;;;20.80;55.70;;;;;;4985850;28;20035;-70
2023/12/27 09:17:16;;;;;;;1.52;1.00;;;20.90;55.80;;;;;;4983504;28;20023;-70
2023/12/27 09:19:42;;;;;;;2.20;1.08;;;20.90;55.80;;;;;;4985437;28;20097;-70
2023/12/27 09:22:08;;;;;;;1.80;1.00;;;20.90;55.80;;;;;;4985737;28;20806;-70
2023/12/27 09:24:35;;;;;;;1.52;0.82;;;20.90;55.80;;;;;;5001366;28;20113;-71
2023/12/27 09:27:00;;;;;;;1.73;1.00;;;20.90;55.80;;;;;;4984800;28;20062;-70
2023/12/27 09:29:26;;;;;;;2.20;1.25;;;20.90;55.80;;;;;;4985184;28;20446;-71
2023/12/27 09:31:52;;;;;;;1.55;1.10;;;20.90;55.80;;;;;;4984112;28;20125;-69
2023/12/27 09:34:17;;;;;;;1.20;0.82;;;20.90;55.70;;;;;;4983846;28;20030;-69
2023/12/27 09:36:43;;;;;;;1.45;0.90;;;20.90;55.70;;;;;;4980217;28;20035;-69
2023/12/27 09:39:11;;;;;;;1.35;0.90;;;20.90;55.70;;;;;;4981288;28;20031;-69
2023/12/27 09:41:37;;;;;;;1.83;0.90;;;20.90;55.70;;;;;;4982938;28;20032;-68
2023/12/27 09:44:06;;;;;;;1.70;0.82;;;20.90;56.30;;;;;;4981061;28;20523;-68
2023/12/27 09:46:33;;;;;;;1.50;1.00;;;20.90;55.80;;;;;;4981870;28;20026;-69
2023/12/27 09:48:58;;;;;;;1.52;0.90;;;20.90;55.80;;;;;;4981145;28;20450;-68
2023/12/27 09:51:25;;;;;;;1.95;1.17;;;20.90;55.70;;;;;;4981363;28;20030;-68
2023/12/27 09:53:51;;;;;;;2.17;1.00;;;20.90;55.70;;;;;;4980309;28;20035;-68
2023/12/27 09:56:21;;;;;;;1.73;0.93;;;20.90;55.70;;;;;;4981569;28;20050;-68
2023/12/27 09:58:51;;;;;;;1.70;0.98;;;20.90;55.70;;;;;;4980215;28;20567;-69
2023/12/27 10:01:19;;;;;;;1.50;0.82;;;20.90;55.70;;;;;;4983334;28;20026;-68
2023/12/27 10:03:51;;;;;;;1.70;0.90;;;20.90;55.70;;;;;;4980932;28;20086;-70
2023/12/27 10:06:32;;;;;;;1.73;1.10;;;20.90;55.70;;;;;;4983790;28;20049;-70
2023/12/27 10:08:58;;;;;;;1.02;0.80;;;20.90;55.70;;;;;;4981670;28;20076;-70
2023/12/27 10:11:25;;;;;;;2.30;1.00;;;20.90;55.70;;;;;;4982830;28;20387;-70
2023/12/27 10:13:51;;;;;;;1.55;0.88;;;20.90;55.70;;;;;;4981061;28;20041;-70
2023/12/27 10:16:17;;;;;;;1.95;1.00;;;20.90;55.70;;;;;;4979952;28;20482;-70
2023/12/27 10:18:48;;;;;;;1.83;0.80;;;20.90;55.70;;;;;;4983428;28;20034;-71
2023/12/27 10:21:15;;;;;;;1.45;0.90;;;20.90;55.70;;;;;;4996266;28;20051;-71
2023/12/27 10:23:41;;;;;;;1.70;1.10;;;20.90;55.70;;;;;;4980351;28;20526;-71
2023/12/27 10:26:07;;;;;;;1.42;0.90;;;20.90;55.70;;;;;;4980247;28;20109;-70
2023/12/27 10:28:33;;;;;;;2.03;1.00;;;20.90;55.70;;;;;;4982050;28;20430;-71
2023/12/27 10:30:59;;;;;;;1.10;0.82;;;20.90;55.70;;;;;;4976667;28;20090;-71
2023/12/27 10:33:24;;;;;;;2.35;0.90;;;20.90;55.60;;;;;;4994408;28;20140;-71
2023/12/27 10:35:50;;;;;;;1.45;0.82;;;20.90;55.60;;;;;;4981906;28;20034;-71
2023/12/27 10:38:16;;;;;;;2.35;1.00;;;20.90;55.60;;;;;;4979512;28;20133;-70
2023/12/27 10:40:42;;;;;;;2.15;1.30;;;20.90;55.60;;;;;;4981804;28;20033;-71
2023/12/27 10:43:08;;;;;;;1.55;0.90;;;21.00;55.70;;;;;;4979065;28;20026;-68
2023/12/27 10:45:35;;;;;;;1.30;1.00;;;20.90;55.60;;;;;;4980237;28;20026;-69
2023/12/27 10:48:04;;;;;;;1.50;0.88;;;21.00;55.60;;;;;;4979767;28;20042;-69
2023/12/27 10:50:31;;;;;;;1.23;0.80;;;21.00;55.60;;;;;;4978880;28;20483;-68
2023/12/27 10:53:00;;;;;;;1.65;1.00;;;21.00;55.50;;;;;;4982902;28;20109;-70
2023/12/27 10:55:28;;;;;;;1.52;1.00;;;21.00;55.60;;;;;;4979713;28;20044;-70
2023/12/27 10:57:55;;;;;;;2.30;0.98;;;21.00;55.50;;;;;;4980597;28;21042;-71
2023/12/27 11:00:22;;;;;;;1.42;0.95;;;21.00;55.50;;;;;;4981029;28;20157;-70
2023/12/27 11:02:47;;;;;;;1.30;0.80;;;21.00;55.50;;;;;;4977676;28;20031;-70
2023/12/27 11:05:15;;;;;;;1.27;0.95;;;21.00;55.50;;;;;;4979922;28;20455;-71
2023/12/27 11:07:45;;;;;;;2.10;1.10;;;21.00;55.60;;;;;;4978549;28;20041;-70
2023/12/27 11:10:14;;;;;;;1.70;1.20;;;21.00;55.50;;;;;;4978525;28;20041;-70
2023/12/27 11:12:45;;;;;;;1.58;1.00;;;21.00;55.50;;;;;;4979638;28;20033;-68
2023/12/27 11:15:12;;;;;;;1.33;0.80;;;21.10;55.60;;;;;;4981744;28;20057;-69
2023/12/27 11:17:40;;;;;;;1.70;1.00;;;21.00;55.50;;;;;;4978028;28;20042;-69
2023/12/27 11:20:14;;;;;;;2.38;1.15;;;21.10;55.50;;;;;;4980856;28;20038;-68
2023/12/27 11:22:41;;;;;;;1.67;1.00;;;21.10;55.50;;;;;;4981498;28;20027;-69
2023/12/27 11:25:07;;;;;;;1.60;1.10;;;21.10;55.50;;;;;;4980340;28;20033;-68
2023/12/27 11:27:33;;;;;;;1.40;0.80;;;21.10;55.50;;;;;;4980937;28;20106;-68
2023/12/27 11:29:58;;;;;;;2.25;1.20;;;21.10;55.50;;;;;;4981420;28;20038;-68
2023/12/27 11:32:25;;;;;;;1.20;0.88;;;21.10;55.50;;;;;;4978943;28;20031;-67
2023/12/27 11:34:56;;;;;;;2.28;1.00;;;21.10;55.50;;;;;;4980682;28;20112;-69
2023/12/27 11:37:23;;;;;;;1.40;1.00;;;21.10;55.50;;;;;;4979864;28;20026;-68
2023/12/27 11:39:51;;;;;;;1.75;1.00;;;21.10;55.50;;;;;;4978842;28;20534;-69
2023/12/27 11:42:17;;;;;;;1.92;1.17;;;21.10;55.50;;;;;;4979534;28;20101;-70
2023/12/27 11:44:53;;;;;;;2.45;1.33;;;21.10;55.50;;;;;;4980245;28;20483;-68
2023/12/27 11:47:22;;;;;;;2.08;1.20;;;21.10;55.40;;;;;;4982130;28;20574;-68
2023/12/27 11:50:07;;;;;;;;;;;21.20;55.50;;;;;;4981378;28;20424;-68
2023/12/27 11:52:40;;;;;;;2.22;1.13;;;21.20;55.50;;;;;;4979918;28;19941;-70
2023/12/27 11:55:15;;;;;;;2.38;1.23;;;21.20;55.50;;;;;;4979973;28;20034;-70
2023/12/27 11:57:42;;;;;;;1.83;1.08;;;21.20;55.50;;;;;;4978812;28;20043;-70
2023/12/27 12:00:11;;;;;;;2.40;1.30;;;21.20;55.50;;;;;;4978977;28;20424;-70
2023/12/27 12:02:47;;;;;;;2.38;1.40;;;21.20;55.50;;;;;;4978767;28;20061;-68
2023/12/27 12:05:37;;;;;;;2.38;1.30;;;21.20;55.50;;;;;;4994927;28;20034;-68
2023/12/27 12:08:18;;;;;;;1.67;1.08;;;21.20;55.60;;;;;;4995276;28;20522;-68
2023/12/27 12:10:43;;;;;;;2.50;1.27;;;21.20;55.50;;;;;;4996985;28;20390;-68
2023/12/27 12:13:10;;;;;;;2.28;1.20;;;21.20;55.50;;;;;;4976624;28;20045;-69
2023/12/27 12:15:36;;;;;;;1.98;1.30;;;21.20;55.50;;;;;;4978767;28;20058;-69
2023/12/27 12:18:03;;;;;;;2.50;1.40;;;21.20;55.50;;;;;;4978198;28;20062;-68
2023/12/27 12:20:30;;;;;;;3.15;1.40;;;21.30;55.60;;;;;;4979545;28;20494;-68
2023/12/27 12:22:56;;;;;;;2.75;1.45;;;21.30;55.60;;;;;;4980425;28;20027;-70
2023/12/27 12:25:28;;;;;;;2.17;1.17;;;21.30;55.60;;;;;;4979969;28;20102;-70
2023/12/27 12:27:54;;;;;;;2.35;1.50;;;21.30;55.60;;;;;;4979619;28;20023;-70
2023/12/27 12:30:20;;;;;;;2.00;1.10;;;21.30;55.60;;;;;;4980230;28;20062;-70
2023/12/27 12:32:46;;;;;;;2.28;1.15;;;21.30;55.60;;;;;;4977073;28;20026;-70
2023/12/27 12:35:12;;;;;;;2.03;1.20;;;21.30;55.60;;;;;;4979710;28;20375;-71
2023/12/27 12:37:37;;;;;;;2.45;1.20;;;21.30;55.60;;;;;;4978957;28;20483;-70
2023/12/27 12:40:08;;;;;;;3.42;1.40;;;21.30;55.60;;;;;;4976808;28;20026;-70
2023/12/27 12:42:34;;;;;;;2.92;1.40;;;21.30;55.60;;;;;;4979126;28;20024;-70
2023/12/27 12:45:03;;;;;;;2.22;1.25;;;21.30;55.50;;;;;;4978510;28;20415;-71